createdAt,value
2023-01-04T00:00:14.341Z,11.10
2023-01-04T00:03:02.347Z,12.20
2023-01-04T00:05:48.524Z,9.07
2023-01-04T00:08:35.057Z,7.63
2023-01-04T00:11:22.065Z,9.10
2023-01-04T00:14:08.413Z,9.23
2023-01-04T00:16:54.603Z,11.53
2023-01-04T00:19:42.134Z,8.60
2023-01-04T00:22:28.505Z,18.60
2023-01-04T00:25:14.901Z,16.30
2023-01-04T00:28:00.937Z,13.70
2023-01-04T00:30:47.478Z,8.40
2023-01-04T00:33:34.377Z,7.87
2023-01-04T00:36:22.691Z,10.70
2023-01-04T00:39:10.207Z,11.73
2023-01-04T00:42:05.167Z,11.07
2023-01-04T00:44:51.360Z,9.73
2023-01-04T00:47:38.019Z,10.40
2023-01-04T00:50:24.507Z,10.17
2023-01-04T00:53:12.552Z,8.83
2023-01-04T00:56:00.603Z,8.97
2023-01-04T00:58:47.137Z,7.50
2023-01-04T01:01:34.006Z,7.13
2023-01-04T01:04:22.223Z,9.77
2023-01-04T01:07:08.794Z,12.17
2023-01-04T01:09:56.698Z,9.67
2023-01-04T01:12:43.060Z,8.83
2023-01-04T01:15:29.220Z,7.67
2023-01-04T01:18:15.639Z,10.13
2023-01-04T01:21:05.488Z,10.67
2023-01-04T01:23:52.133Z,10.87
2023-01-04T01:26:39.678Z,8.13
2023-01-04T01:29:26.317Z,8.13
2023-01-04T01:32:12.663Z,8.07
2023-01-04T01:34:59.276Z,9.17
2023-01-04T01:37:45.565Z,9.87
2023-01-04T01:40:31.801Z,8.53
2023-01-04T01:43:20.215Z,8.63
2023-01-04T01:46:06.418Z,8.33
2023-01-04T01:48:55.417Z,11.00
2023-01-04T01:51:42.705Z,11.40
2023-01-04T01:54:32.224Z,8.40
2023-01-04T01:57:20.708Z,8.30
2023-01-04T02:00:10.318Z,6.80
2023-01-04T02:03:04.636Z,6.17
2023-01-04T02:05:52.855Z,7.00
2023-01-04T02:08:39.642Z,7.03
2023-01-04T02:11:26.077Z,6.50
2023-01-04T02:14:36.079Z,7.37
2023-01-04T02:17:27.154Z,7.57
2023-01-04T02:20:25.408Z,7.03
2023-01-04T02:23:30.480Z,7.70
2023-01-04T02:26:43.667Z,6.87
2023-01-04T02:29:48.426Z,6.40
2023-01-04T02:32:42.280Z,9.03
2023-01-04T02:35:30.924Z,7.50
2023-01-04T02:38:22.050Z,6.87
2023-01-04T02:41:16.187Z,7.50
2023-01-04T02:44:23.919Z,7.67
2023-01-04T02:47:11.451Z,7.30
2023-01-04T02:50:16.841Z,7.43
2023-01-04T02:53:04.715Z,5.90
2023-01-04T02:55:53.801Z,7.53
2023-01-04T02:58:50.584Z,6.10
2023-01-04T03:01:58.475Z,5.60
2023-01-04T03:05:07.160Z,5.97
2023-01-04T03:07:55.930Z,5.73
2023-01-04T03:10:45.574Z,5.87
2023-01-04T03:13:34.053Z,4.93
2023-01-04T03:16:24.246Z,6.53
2023-01-04T03:19:12.568Z,7.40
2023-01-04T03:21:58.795Z,6.97
2023-01-04T03:25:03.825Z,8.10
2023-01-04T03:28:09.041Z,6.70
2023-01-04T03:31:17.803Z,7.80
2023-01-04T03:34:21.608Z,6.87
2023-01-04T03:37:10.381Z,7.53
2023-01-04T03:40:21.577Z,8.20
2023-01-04T03:43:28.377Z,7.00
2023-01-04T03:46:35.966Z,7.00
2023-01-04T03:49:25.264Z,7.47
2023-01-04T03:52:12.358Z,7.53
2023-01-04T03:55:00.117Z,7.10
2023-01-04T03:57:48.703Z,8.13
2023-01-04T04:00:35.594Z,7.80
2023-01-04T04:03:22.010Z,7.23
2023-01-04T04:06:27.498Z,6.70
2023-01-04T04:09:13.660Z,5.77
2023-01-04T04:12:00.469Z,6.43
2023-01-04T04:14:48.438Z,7.57
2023-01-04T04:17:34.942Z,7.47
2023-01-04T04:20:21.617Z,7.43
2023-01-04T04:23:08.122Z,7.07
2023-01-04T04:25:54.324Z,6.70
2023-01-04T04:28:40.738Z,5.10
2023-01-04T04:31:28.399Z,6.77
2023-01-04T04:34:14.826Z,7.23
2023-01-04T04:37:01.231Z,6.77
2023-01-04T04:39:47.692Z,7.43
2023-01-04T04:42:33.221Z,6.40
2023-01-04T04:45:19.893Z,6.93
2023-01-04T04:48:07.513Z,6.57
2023-01-04T04:50:54.082Z,8.20
2023-01-04T04:53:40.603Z,8.00
2023-01-04T04:56:27.160Z,6.93
2023-01-04T04:59:13.347Z,7.40
2023-01-04T05:01:59.978Z,6.37
2023-01-04T05:04:47.620Z,7.73
2023-01-04T05:07:34.151Z,9.43
2023-01-04T05:10:20.733Z,9.20
2023-01-04T05:13:07.445Z,9.37
2023-01-04T05:15:55.289Z,7.87
2023-01-04T05:18:41.795Z,8.97
2023-01-04T05:21:29.482Z,8.50
2023-01-04T05:24:16.086Z,11.50
2023-01-04T05:27:02.492Z,8.77
2023-01-04T05:30:06.519Z,8.13
2023-01-04T05:32:52.805Z,6.67
2023-01-04T05:35:39.316Z,7.33
2023-01-04T05:38:27.095Z,8.10
2023-01-04T05:41:26.991Z,8.20
2023-01-04T05:44:13.444Z,7.67
2023-01-04T05:46:59.744Z,7.80
2023-01-04T05:49:45.867Z,7.93
2023-01-04T05:52:32.346Z,5.83
2023-01-04T05:55:20.079Z,7.70
2023-01-04T05:58:06.586Z,8.17
2023-01-04T06:00:53.162Z,10.03
2023-01-04T06:03:39.540Z,8.13
2023-01-04T06:06:26.081Z,10.67
2023-01-04T06:09:12.554Z,10.13
2023-01-04T06:12:00.129Z,9.10
2023-01-04T06:14:46.594Z,12.13
2023-01-04T06:17:33.122Z,10.63
2023-01-04T06:20:19.307Z,9.50
2023-01-04T06:23:05.985Z,9.70
2023-01-04T06:25:52.146Z,7.57
2023-01-04T06:28:41.273Z,6.83
2023-01-04T06:31:27.713Z,7.67
2023-01-04T06:34:14.700Z,8.50
2023-01-04T06:37:00.843Z,7.50
2023-01-04T06:39:47.008Z,7.60
2023-01-04T06:42:48.119Z,8.03
2023-01-04T06:45:35.946Z,7.27
2023-01-04T06:48:22.266Z,9.93
2023-01-04T06:51:08.895Z,9.77
2023-01-04T06:53:54.997Z,8.67
2023-01-04T06:56:41.342Z,9.33
2023-01-04T06:59:27.730Z,9.47
2023-01-04T07:02:16.752Z,9.60
2023-01-04T07:05:03.434Z,8.67
2023-01-04T07:07:49.977Z,10.70
2023-01-04T07:10:36.140Z,8.53
2023-01-04T07:13:22.380Z,11.17
2023-01-04T07:16:08.933Z,9.83
2023-01-04T07:18:56.763Z,9.53
2023-01-04T07:21:43.500Z,10.27
2023-01-04T07:24:30.627Z,10.80
2023-01-04T07:27:17.488Z,11.53
2023-01-04T07:30:03.724Z,11.77
2023-01-04T07:32:50.244Z,13.60
2023-01-04T07:35:38.022Z,11.13
2023-01-04T07:38:24.924Z,13.67
2023-01-04T07:41:11.559Z,12.63
2023-01-04T07:43:58.207Z,13.33
2023-01-04T07:46:45.004Z,13.33
2023-01-04T07:49:31.738Z,12.97
2023-01-04T07:52:19.483Z,10.87
2023-01-04T07:55:06.055Z,12.47
2023-01-04T07:57:54.092Z,11.13
2023-01-04T08:00:40.738Z,11.47
2023-01-04T08:03:27.280Z,13.87
2023-01-04T08:06:14.875Z,10.60
2023-01-04T08:09:02.566Z,10.83
2023-01-04T08:11:49.325Z,9.03
2023-01-04T08:14:35.620Z,13.00
2023-01-04T08:17:22.108Z,15.80
2023-01-04T08:20:08.683Z,16.53
2023-01-04T08:22:54.752Z,16.17
2023-01-04T08:25:42.463Z,11.57
2023-01-04T08:28:28.937Z,13.30
2023-01-04T08:31:16.423Z,10.17
2023-01-04T08:34:03.983Z,12.20
2023-01-04T08:36:51.207Z,11.27
2023-01-04T08:39:37.625Z,9.63
2023-01-04T08:42:31.221Z,10.93
2023-01-04T08:45:18.784Z,10.40
2023-01-04T08:48:05.373Z,12.63
2023-01-04T08:50:51.828Z,11.20
2023-01-04T08:53:38.066Z,11.47
2023-01-04T08:56:24.779Z,11.00
2023-01-04T08:59:13.161Z,14.27
2023-01-04T09:02:05.266Z,14.17
2023-01-04T09:04:52.145Z,9.83
2023-01-04T09:07:38.606Z,12.17
2023-01-04T09:10:25.044Z,10.83
2023-01-04T09:13:11.542Z,11.37
2023-01-04T09:16:02.527Z,11.50
2023-01-04T09:18:49.180Z,13.67
2023-01-04T09:21:35.629Z,12.93
2023-01-04T09:24:22.563Z,16.53
2023-01-04T09:27:09.112Z,13.27
2023-01-04T09:29:55.705Z,12.00
2023-01-04T09:32:43.242Z,12.27
2023-01-04T09:35:29.681Z,12.33
2023-01-04T09:38:16.275Z,13.40
2023-01-04T09:41:05.450Z,12.30
2023-01-04T09:43:52.541Z,12.37
2023-01-04T09:46:40.428Z,13.17
2023-01-04T09:49:30.685Z,11.67
2023-01-04T09:52:19.558Z,9.57
2023-01-04T09:55:37.376Z,9.00
2023-01-04T09:58:21.700Z,12.07
2023-01-04T10:01:10.574Z,9.57
2023-01-04T10:04:00.853Z,10.97
2023-01-04T10:06:48.883Z,11.57
2023-01-04T10:09:35.469Z,8.87
2023-01-04T10:12:33.509Z,13.10
2023-01-04T10:15:26.803Z,11.00
2023-01-04T10:19:36.915Z,12.17
2023-01-04T10:21:33.851Z,18.70
2023-01-04T10:24:34.807Z,14.70
2023-01-04T10:27:25.961Z,15.83
2023-01-04T10:30:22.499Z,17.77
2023-01-04T10:33:12.332Z,16.80
2023-01-04T10:35:59.398Z,15.47
2023-01-04T10:38:46.721Z,16.70
2023-01-04T10:41:36.289Z,15.20
2023-01-04T10:44:25.242Z,14.43
2023-01-04T10:47:12.551Z,15.43
2023-01-04T10:50:00.402Z,13.97
2023-01-04T10:52:48.974Z,14.53
2023-01-04T10:55:39.671Z,12.50
2023-01-04T10:58:30.452Z,12.63
2023-01-04T11:01:21.329Z,11.20
2023-01-04T11:04:10.761Z,12.37
2023-01-04T11:07:00.940Z,13.07
2023-01-04T11:09:50.227Z,19.90
2023-01-04T11:12:36.972Z,22.83
2023-01-04T11:15:24.908Z,32.37
2023-01-04T11:18:14.141Z,17.80
2023-01-04T11:21:04.678Z,17.37
2023-01-04T11:23:51.333Z,18.37
2023-01-04T11:26:39.992Z,17.37
2023-01-04T11:29:33.399Z,11.50
2023-01-04T11:32:25.738Z,10.43
2023-01-04T11:35:12.120Z,8.53
2023-01-04T11:38:10.383Z,8.57
2023-01-04T11:41:01.300Z,7.10
2023-01-04T11:43:57.566Z,7.67
2023-01-04T11:46:43.972Z,7.03
2023-01-04T11:49:34.870Z,8.17
2023-01-04T11:52:31.502Z,7.73
2023-01-04T11:55:24.055Z,6.93
2023-01-04T11:58:12.051Z,7.83
2023-01-04T12:00:58.957Z,9.83
2023-01-04T12:03:45.155Z,6.97
2023-01-04T12:06:39.301Z,8.23
2023-01-04T12:09:25.967Z,9.37
2023-01-04T12:12:15.968Z,14.10
2023-01-04T12:15:04.528Z,10.03
2023-01-04T12:17:53.115Z,9.17
2023-01-04T12:20:39.491Z,10.37
2023-01-04T12:23:27.430Z,13.53
2023-01-04T12:26:14.636Z,8.47
2023-01-04T12:29:15.749Z,7.27
2023-01-04T12:32:26.071Z,7.93
2023-01-04T12:35:31.235Z,9.07
2023-01-04T12:38:37.434Z,6.83
2023-01-04T12:41:26.132Z,9.63
2023-01-04T12:44:27.079Z,9.43
2023-01-04T12:47:56.899Z,24.50
2023-01-04T12:51:14.743Z,9.93
2023-01-04T12:54:23.281Z,14.70
2023-01-04T12:57:23.830Z,15.93
2023-01-04T13:00:13.070Z,14.17
2023-01-04T13:03:14.417Z,17.77
2023-01-04T13:06:02.218Z,17.53
2023-01-04T13:08:50.630Z,22.93
2023-01-04T13:11:44.521Z,17.60
2023-01-04T13:14:34.288Z,12.73
2023-01-04T13:17:23.021Z,10.33
2023-01-04T13:20:16.729Z,20.07
2023-01-04T13:23:03.217Z,10.70
2023-01-04T13:25:49.274Z,9.57
2023-01-04T13:28:36.276Z,12.43
2023-01-04T13:31:23.013Z,29.50
2023-01-04T13:34:16.928Z,13.57
2023-01-04T13:37:08.209Z,12.37
2023-01-04T13:40:02.154Z,11.30
2023-01-04T13:42:49.566Z,26.33
2023-01-04T13:45:47.158Z,13.87
2023-01-04T13:48:37.366Z,13.77
2023-01-04T13:51:32.085Z,12.13
2023-01-04T13:54:23.144Z,10.97
2023-01-04T13:57:10.309Z,12.43
2023-01-04T13:59:56.877Z,16.30
2023-01-04T14:02:43.585Z,24.30
2023-01-04T14:05:30.058Z,11.63
2023-01-04T14:08:22.244Z,13.17
2023-01-04T14:11:15.853Z,16.67
2023-01-04T14:14:02.315Z,15.70
2023-01-04T14:16:48.711Z,44.27
2023-01-04T14:19:43.768Z,36.20
2023-01-04T14:22:45.202Z,21.10
2023-01-04T14:25:57.316Z,12.93
2023-01-04T14:28:49.981Z,24.20
2023-01-04T14:31:37.492Z,18.17
2023-01-04T14:34:23.946Z,16.17
2023-01-04T14:37:11.120Z,18.67
2023-01-04T14:39:57.528Z,17.23
2023-01-04T14:42:43.700Z,11.10
2023-01-04T14:45:31.845Z,14.30
2023-01-04T14:48:23.653Z,14.83
2023-01-04T14:51:15.282Z,13.27
2023-01-04T14:54:01.633Z,15.63
2023-01-04T14:56:48.865Z,13.63
2023-01-04T14:59:35.841Z,12.07
2023-01-04T15:02:27.088Z,12.13
2023-01-04T15:05:13.923Z,13.50
2023-01-04T15:08:01.562Z,13.87
2023-01-04T15:10:51.138Z,14.07
2023-01-04T15:13:40.042Z,14.93
2023-01-04T15:16:26.768Z,19.13
2023-01-04T15:19:14.834Z,16.77
2023-01-04T15:22:01.545Z,14.27
2023-01-04T15:24:47.977Z,13.23
2023-01-04T15:27:40.004Z,14.63
2023-01-04T15:30:28.590Z,13.27
2023-01-04T15:33:15.111Z,12.47
2023-01-04T15:36:03.722Z,12.80
2023-01-04T15:38:50.717Z,13.73
2023-01-04T15:41:54.528Z,17.03
2023-01-04T15:44:40.695Z,13.53
2023-01-04T15:47:27.137Z,15.63
2023-01-04T15:50:13.634Z,13.20
2023-01-04T15:53:01.715Z,16.30
2023-01-04T15:55:48.109Z,14.83
2023-01-04T15:58:34.453Z,14.20
2023-01-04T16:01:21.423Z,17.33
2023-01-04T16:04:08.208Z,15.77
2023-01-04T16:06:54.863Z,14.80
2023-01-04T16:09:42.530Z,15.20
2023-01-04T16:12:44.550Z,16.63
2023-01-04T16:15:31.007Z,13.83
2023-01-04T16:18:17.583Z,14.80
2023-01-04T16:21:06.146Z,12.57
2023-01-04T16:23:54.891Z,14.67
2023-01-04T16:26:46.107Z,14.17
2023-01-04T16:29:32.655Z,14.13
2023-01-04T16:32:18.756Z,14.90
2023-01-04T16:35:05.372Z,15.67
2023-01-04T16:37:51.612Z,15.37
2023-01-04T16:40:38.187Z,18.10
2023-01-04T16:43:26.129Z,16.23
2023-01-04T16:46:31.189Z,17.70
2023-01-04T16:49:18.361Z,14.03
2023-01-04T16:52:04.436Z,14.30
2023-01-04T16:54:50.673Z,13.17
2023-01-04T16:57:37.254Z,12.57
2023-01-04T17:00:25.152Z,13.80
2023-01-04T17:03:11.778Z,15.50
2023-01-04T17:05:57.843Z,15.73
2023-01-04T17:08:44.878Z,16.37
2023-01-04T17:12:19.180Z,15.50
2023-01-04T17:14:39.088Z,13.93
2023-01-04T17:17:27.093Z,13.97
2023-01-04T17:20:13.601Z,17.53
2023-01-04T17:23:01.077Z,23.17
2023-01-04T17:25:47.513Z,18.70
2023-01-04T17:28:34.229Z,15.87
2023-01-04T17:31:21.917Z,13.77
2023-01-04T17:34:11.211Z,14.63
2023-01-04T17:36:57.486Z,17.00
2023-01-04T17:39:43.610Z,16.87
2023-01-04T17:42:29.945Z,17.13
2023-01-04T17:45:16.506Z,13.00
2023-01-04T17:48:03.232Z,14.80
2023-01-04T17:50:51.277Z,13.43
2023-01-04T17:53:38.394Z,13.77
2023-01-04T17:56:25.265Z,16.57
2023-01-04T17:59:12.074Z,11.57
2023-01-04T18:01:58.568Z,12.53
2023-01-04T18:04:45.204Z,10.87
2023-01-04T18:07:33.738Z,11.40
2023-01-04T18:10:40.456Z,12.20
2023-01-04T18:13:26.816Z,12.17
2023-01-04T18:16:24.547Z,11.77
2023-01-04T18:19:11.911Z,13.20
2023-01-04T18:21:58.520Z,12.93
2023-01-04T18:24:46.171Z,14.70
2023-01-04T18:27:32.621Z,15.20
2023-01-04T18:30:19.281Z,12.40
2023-01-04T18:33:05.727Z,13.30
2023-01-04T18:35:52.301Z,11.93
2023-01-04T18:38:39.101Z,11.83
2023-01-04T18:41:28.062Z,12.20
2023-01-04T18:47:22.523Z,13.17
2023-01-04T18:50:10.128Z,12.83
2023-01-04T18:52:56.704Z,12.33
2023-01-04T18:55:42.987Z,12.13
2023-01-04T18:58:31.466Z,10.00
2023-01-04T19:01:18.046Z,11.63
2023-01-04T19:04:05.110Z,14.23
2023-01-04T19:06:51.676Z,24.33
2023-01-04T19:09:39.502Z,14.30
2023-01-04T19:12:25.529Z,13.80
2023-01-04T19:15:13.672Z,12.23
2023-01-04T19:18:00.230Z,16.40
2023-01-04T19:20:46.361Z,13.60
2023-01-04T19:23:32.662Z,14.07
2023-01-04T19:26:19.000Z,14.77
2023-01-04T19:29:07.459Z,17.07
2023-01-04T19:31:55.277Z,16.03
2023-01-04T19:34:41.700Z,13.13
2023-01-04T19:37:27.916Z,13.60
2023-01-04T19:40:14.048Z,12.20
2023-01-04T19:43:00.490Z,13.03
2023-01-04T19:45:47.247Z,15.57
2023-01-04T19:48:35.122Z,14.70
2023-01-04T19:51:21.850Z,13.43
2023-01-04T19:54:08.587Z,12.73
2023-01-04T19:56:55.446Z,14.93
2023-01-04T19:59:42.026Z,15.37
2023-01-04T20:02:28.632Z,16.07
2023-01-04T20:05:16.671Z,14.30
2023-01-04T20:08:03.064Z,16.80
2023-01-04T20:10:54.060Z,17.63
2023-01-04T20:13:40.980Z,21.90
2023-01-04T20:16:27.476Z,19.03
2023-01-04T20:19:13.989Z,13.13
2023-01-04T20:22:01.638Z,13.37
2023-01-04T20:24:48.034Z,14.33
2023-01-04T20:27:34.419Z,23.57
2023-01-04T20:30:20.844Z,34.73
2023-01-04T20:33:06.989Z,24.63
2023-01-04T20:35:53.474Z,18.97
2023-01-04T20:38:41.984Z,18.20
2023-01-04T20:41:29.846Z,15.53
2023-01-04T20:44:14.952Z,14.90
2023-01-04T20:47:01.162Z,19.50
2023-01-04T20:49:47.951Z,17.87
2023-01-04T20:52:34.380Z,18.07
2023-01-04T20:55:21.986Z,14.50
2023-01-04T20:58:09.554Z,14.67
2023-01-04T21:00:55.735Z,13.10
2023-01-04T21:03:42.062Z,14.47
2023-01-04T21:06:30.708Z,14.73
2023-01-04T21:09:17.526Z,15.40
2023-01-04T21:12:07.364Z,13.50
2023-01-04T21:14:54.113Z,13.27
2023-01-04T21:17:40.385Z,15.10
2023-01-04T21:20:27.079Z,13.10
2023-01-04T21:23:15.058Z,15.30
2023-01-04T21:26:04.901Z,14.97
2023-01-04T21:28:52.721Z,15.50
2023-01-04T21:31:39.575Z,13.20
2023-01-04T21:34:27.269Z,12.83
2023-01-04T21:37:13.773Z,14.87
2023-01-04T21:39:59.861Z,13.87
2023-01-04T21:42:46.108Z,14.30
2023-01-04T21:45:33.704Z,14.63
2023-01-04T21:48:20.021Z,12.83
2023-01-04T21:51:07.172Z,17.00
2023-01-04T21:53:53.419Z,15.20
2023-01-04T21:56:40.147Z,13.27
2023-01-04T21:59:26.520Z,14.37
2023-01-04T22:02:15.537Z,15.70
2023-01-04T22:05:02.381Z,15.13
2023-01-04T22:07:48.871Z,15.13
2023-01-04T22:10:35.199Z,13.77
2023-01-04T22:13:21.610Z,16.63
2023-01-04T22:16:09.138Z,15.00
2023-01-04T22:18:56.963Z,14.30
2023-01-04T22:21:43.631Z,15.27
2023-01-04T22:24:35.503Z,15.50
2023-01-04T22:27:23.939Z,14.83
2023-01-04T22:30:10.429Z,16.70
2023-01-04T22:32:56.928Z,12.27
2023-01-04T22:35:44.591Z,13.30
2023-01-04T22:38:31.005Z,17.47
2023-01-04T22:41:19.081Z,12.93
2023-01-04T22:44:06.217Z,16.27
2023-01-04T22:46:52.303Z,14.83
2023-01-04T22:49:38.564Z,12.77
2023-01-04T22:52:26.249Z,13.17
2023-01-04T22:55:12.684Z,16.43
2023-01-04T22:57:59.089Z,14.20
2023-01-04T23:00:45.547Z,17.27
2023-01-04T23:03:33.357Z,13.67
2023-01-04T23:06:20.002Z,13.20
2023-01-04T23:09:10.914Z,12.57
2023-01-04T23:11:57.515Z,12.43
2023-01-04T23:14:44.380Z,12.47
2023-01-04T23:17:31.383Z,12.73
2023-01-04T23:20:20.450Z,11.33
2023-01-04T23:23:06.864Z,14.63
2023-01-04T23:25:54.613Z,11.67
2023-01-04T23:28:41.007Z,12.70
2023-01-04T23:31:28.362Z,12.87
2023-01-04T23:34:15.175Z,13.97
2023-01-04T23:37:01.336Z,13.00
2023-01-04T23:39:47.526Z,12.17
2023-01-04T23:42:39.597Z,12.40
2023-01-04T23:45:26.030Z,13.23
2023-01-04T23:48:12.215Z,15.40
2023-01-04T23:50:58.719Z,15.03
2023-01-04T23:53:45.230Z,12.63
2023-01-04T23:56:32.551Z,15.70
2023-01-04T23:59:20.791Z,12.70
